Williamsburg, Ohio
Current Conditions -  °F | °C
As of 10:53 PM on Saturday 25 Oct 2014 (Local Time) from KLUK Reporting Station
Clear Clear  
Wind Chill: 64°   Ceiling: Unl
Heat Index: 64°   Visibility: 10mi
Dew Point: 52°   Wind: 6mph
Humidity: 65%   Direction: 240°WSW
Pressure: 29.92"   Gusts: NA
Location:  39.05°N, 84.05°W
Report Text: KLUK 260253Z 24005KT 10SM CLR 18/11 A2992 RMK AO2 SLP129 T01780111 55000
Loading
Personal Weather Stations






























Interactive Weather Map
Tropical Storm Tracking
New forecast layout! Learn more

10-Day Weather Forecast

Advertisements
Track Severe Weather on mobile